Clarendon, New York
Current Conditions -  °F | °C
As of 3:54 PM on Tuesday 21 Oct 2014 (Local Time) from KROC Reporting Station
Overcast Overcast  
Wind Chill: 53°   Ceiling: 1500
Heat Index: 53°   Visibility: 10mi
Dew Point: 50°   Wind: 13mph
Humidity: 89%   Direction: 30°NNE
Pressure: 29.89"   Gusts: NA
Location:  43.19°N, 78.06°W
Report Text: KROC 211954Z 03011KT 10SM SCT008 BKN015 OVC022 12/10 A2989 RMK AO2 RAB27E34 SLP124 BINOVC P0000 T01170100
Loading
Personal Weather Stations






























Interactive Weather Map
Tropical Storm Tracking
New forecast layout! Learn more

10-Day Weather Forecast

Advertisements
Track Severe Weather on mobile